Date,TemperatureHighF,TemperatureAvgF,TemperatureLowF,DewpointHighF,DewpointAvgF,DewpointLowF,HumidityHigh,HumidityAvg,HumidityLow,PressureMaxIn,PressureMinIn,WindSpeedMaxMPH,WindSpeedAvgMPH,GustSpeedMaxMPH,PrecipitationSumIn
2013-7-1,105,84,65,64,59,50,73,46,17,29.78,29.70,4,0,8,0.00
2013-7-2,105,86,72,65,60,54,67,44,24,29.82,29.73,10,3,16,0.00
2013-7-3,104,84,64,66,61,55,76,48,28,29.83,29.66,7,1,14,0.00
2013-7-4,109,88,71,67,62,53,71,45,17,29.68,29.56,7,2,12,0.00
2013-7-5,85,74,65,56,53,48,65,48,36,29.70,29.60,8,4,14,0.00
2013-7-6,87,68,56,58,54,52,87,65,33,29.75,29.65,6,3,11,0.00
2013-7-7,93,74,55,59,51,34,89,52,14,29.78,29.70,6,2,11,0.00
2013-7-8,95,71,53,57,50,37,91,54,14,29.90,29.78,4,1,9,0.00
2013-7-9,100,79,56,57,51,41,84,46,14,29.98,29.85,4,0,8,0.00
2013-7-10,98,77,60,59,48,-100,76,42,16,29.90,29.79,6,2,13,0.00
2013-7-11,89,69,53,54,51,44,91,57,21,29.88,29.78,8,2,13,0.00
2013-7-12,88,69,54,57,53,49,88,61,29,29.89,29.78,6,2,13,0.00
2013-7-13,95,77,57,58,49,40,76,44,16,29.91,29.82,6,2,10,0.00
2013-7-14,94,75,58,57,51,46,73,48,22,29.92,29.79,7,1,11,0.00
2013-7-15,85,67,54,57,52,48,88,62,29,29.85,29.73,8,3,14,0.00
2013-7-16,77,64,54,55,53,51,90,70,43,29.96,29.80,9,5,15,0.00
2013-7-17,92,70,51,57,53,46,96,63,22,30.05,29.93,6,1,11,0.00
2013-7-18,97,74,54,57,52,43,90,54,17,30.00,29.84,6,1,11,0.00
2013-7-19,99,76,57,59,54,50,83,53,23,29.88,29.71,5,1,11,0.00
2013-7-20,98,76,59,62,56,52,80,53,25,29.78,29.62,7,2,13,0.00
2013-7-21,94,76,61,59,53,48,74,49,24,29.79,29.67,10,4,17,0.00
2013-7-22,91,75,64,57,52,38,75,48,17,29.90,29.80,9,3,15,0.00
2013-7-23,91,76,67,55,51,43,65,43,21,29.95,29.82,8,2,14,0.00
2013-7-24,99,79,62,61,55,48,75,47,24,29.92,29.80,6,2,11,0.00
2013-7-25,96,76,65,63,56,53,66,53,32,29.90,29.83,6,2,11,0.00
2013-7-26,95,82,66,60,57,53,64,44,29,29.95,29.88,7,3,11,0.00
2013-7-27,91,72,56,59,56,52,89,59,32,29.94,29.76,8,3,14,0.00
2013-7-28,88,70,57,62,55,51,89,62,33,29.81,29.70,7,4,14,0.00
2013-7-29,81,65,54,56,53,51,90,69,40,29.94,29.76,7,4,14,0.00
2013-7-30,89,69,52,61,54,41,94,64,21,30.05,29.92,6,2,10,0.00
2013-7-31,87,68,54,57,53,49,91,62,28,30.03,29.89,7,3,14,0.00